• Join FlightAware (Why Join?)
  • Login
  • US Flag 
10:51AM EDT


 

Airport Tracker/Info


-or-


 

Live Flight TrackerFlight Track Log ✈ RPA3143 ✈ 18-Jul-2013 ✈ KDCA - KMCO

Flight Track Log - Related Links

Times and Time Zones

All times are in EDT time to prevent confusion due to time zone crossing. See the RPA3143 flight status page for this flight to view local times or setup timezone preferences in your user account.

Time Position Orientation Groundspeed Altitude Reporting Facility
EDT Latitude Longitude Course Direction KTS MPH feet Rate Location/Type
08:04AM 38.8856 -77.0664 233° Southwest 169 194 1,800  Level Washington Center
08:05AM 38.9333 -77.1167 321° Northwest 250 288 3,700 2,160 Climbing Potomac TRACON
08:06AM 38.6319 -77.2848 218° Southwest  Level FlightAware Approximate
08:06AM 38.9500 -77.2000 284° West 288 331 6,400  Level Potomac TRACON
08:07AM 38.5525 -77.3642 218° Southwest  Level FlightAware Approximate
08:07AM 38.8833 -77.2500 210° Southwest 297 342 8,900  Level Potomac TRACON
08:08AM 38.4795 -77.4526 225° Southwest  Level FlightAware Approximate
08:08AM 38.8167 -77.3000 210° Southwest 316 364 10,800  Level Potomac TRACON
08:09AM 38.4059 -77.5387 201° Southwest  Level FlightAware Approximate
08:10AM 38.3369 -77.6274 233° Southwest  Level FlightAware Approximate
08:10AM 38.6411 -77.4097 206° Southwest 339 390 14,900  Level Washington Center
08:11AM 38.5547 -77.4686 208° Southwest 344 396 17,000 1,800 Climbing Washington Center
08:12AM 38.4622 -77.5272 206° Southwest 355 409 18,600 1,560 Climbing Washington Center
08:13AM 38.3819 -77.5861 210° Southwest 362 417 20,200 1,620 Climbing Washington Center
08:14AM 38.3156 -77.6903 231° Southwest 367 422 21,900 1,560 Climbing Washington Center
08:15AM 38.2469 -77.7967 231° Southwest 378 435 23,400 1,440 Climbing Washington Center
08:16AM 38.1761 -77.9056 230° Southwest 396 456 24,800 1,380 Climbing Washington Center
08:17AM 38.1050 -78.0142 230° Southwest 406 467 26,200 1,260 Climbing Washington Center
08:18AM 38.0319 -78.1253 230° Southwest 411 473 27,400 1,020 Climbing Washington Center
08:19AM 37.9483 -78.2225 223° Southwest 411 473 28,300 1,020 Climbing Washington Center
08:20AM 37.8419 -78.3214 216° Southwest 416 479 29,500 1,020 Climbing Washington Center
08:21AM 37.7439 -78.4069 215° Southwest 428 493 30,400 960 Climbing Washington Center
08:22AM 37.6283 -78.4447 195° South 428 493 31,400 960 Climbing Washington Center
08:23AM 37.5128 -78.4822 194° South 433 498 32,400 900 Climbing Washington Center
08:24AM 37.4192 -78.5519 211° Southwest 433 498 33,300 780 Climbing Washington Center
08:25AM 37.3486 -78.6275 220° Southwest 428 493 34,000 900 Climbing Washington Center
08:26AM 37.2392 -78.7406 219° Southwest 428 493 35,200 960 Climbing Washington Center
08:27AM 37.1511 -78.8336 220° Southwest 423 487 36,000 360 Climbing Washington Center
08:28AM 37.0633 -78.9236 219° Southwest 417 480 36,000  Level Washington Center
08:29AM 36.9622 -79.0308 220° Southwest 422 486 36,000  Level Washington Center
08:30AM 36.8675 -79.1278 219° Southwest 435 501 36,000  Level Washington Center
08:31AM 36.7728 -79.2300 221° Southwest 442 509 36,000  Level Washington Center
08:33AM 36.5825 -79.4214 219° Southwest 459 528 36,000  Level Atlanta Center
08:34AM 36.4842 -79.5225 220° Southwest 459 528 36,000  Level Atlanta Center
08:35AM 36.3775 -79.6344 220° Southwest 454 522 36,000  Level Atlanta Center
08:36AM 36.2789 -79.7350 219° Southwest 459 528 36,000  Level Atlanta Center
08:37AM 36.1803 -79.8356 219° Southwest 459 528 36,000  Level Atlanta Center
08:38AM 36.0814 -79.9356 219° Southwest 459 528 36,000  Level Atlanta Center
08:39AM 35.9792 -79.9972 206° Southwest 459 528 36,000  Level Atlanta Center
08:40AM 35.8594 -80.0367 195° South 447 514 36,000  Level Atlanta Center
08:41AM 35.7358 -80.0783 195° South 452 520 36,000  Level Atlanta Center
08:42AM 35.6036 -80.1206 195° South 452 520 36,000  Level Atlanta Center
08:43AM 35.4839 -80.1619 196° South 452 520 36,000  Level Atlanta Center
08:44AM 35.3619 -80.2008 195° South 452 520 36,000  Level Atlanta Center
08:45AM 35.2400 -80.2397 195° South 452 520 36,000  Level Atlanta Center
08:47AM 35.0117 -80.3150 195° South 466 536 36,000  Level Jacksonville Center
08:48AM 34.8936 -80.3539 195° South 461 531 36,000  Level Jacksonville Center
08:49AM 34.7711 -80.3906 194° South 454 522 36,000  Level Jacksonville Center
08:50AM 34.6511 -80.4319 196° South 449 517 36,000  Level Jacksonville Center
08:51AM 34.5328 -80.4681 194° South 449 517 36,000  Level Jacksonville Center
08:52AM 34.4125 -80.4964 191° South 449 517 36,000  Level Jacksonville Center
08:53AM 34.2900 -80.5225 190° South 449 517 36,000  Level Jacksonville Center
08:54AM 34.1694 -80.5483 190° South 449 517 36,000  Level Jacksonville Center
08:55AM 34.0489 -80.5792 192° South 449 517 36,000  Level Jacksonville Center
08:56AM 33.9325 -80.6047 190° South 444 511 36,000  Level Jacksonville Center
08:57AM 33.8100 -80.6306 190° South 444 511 36,000  Level Jacksonville Center
08:58AM 33.6936 -80.6583 191° South 444 511 36,000  Level Jacksonville Center
08:59AM 33.5731 -80.6864 191° South 444 511 36,000  Level Jacksonville Center
09:00AM 33.4503 -80.7119 190° South 444 511 36,000  Level Jacksonville Center
09:01AM 33.3297 -80.7422 192° South 449 517 36,000  Level Jacksonville Center
09:02AM 33.2069 -80.7675 190° South 449 517 36,000  Level Jacksonville Center
09:03AM 33.0844 -80.7978 192° South 449 517 36,000  Level Jacksonville Center
09:04AM 32.9617 -80.8203 189° South 449 517 36,000  Level Jacksonville Center
09:05AM 32.8411 -80.8503 192° South 449 517 36,000  Level Jacksonville Center
09:06AM 32.7203 -80.8753 190° South 449 517 36,000  Level Jacksonville Center
09:07AM 32.5953 -80.8878 185° South 447 514 36,000  Level Jacksonville Center
09:08AM 32.4744 -80.8956 183° South 436 502 36,000  Level Jacksonville Center
09:09AM 32.3575 -80.9031 183° South 431 496 36,000  Level Jacksonville Center
09:10AM 32.2492 -80.9103 183° South 438 504 36,000  Level Jacksonville Center
09:11AM 32.1136 -80.9181 183° South 444 511 36,000  Level Jacksonville Center
09:12AM 31.9925 -80.9256 183° South 444 511 36,000  Level Jacksonville Center
09:13AM 31.8822 -80.9353 184° South 444 511 36,000 -60 Level Jacksonville Center
09:14AM 31.7486 -80.9453 184° South 444 511 35,900 -600 Descending Jacksonville Center
09:15AM 31.6236 -80.9531 183° South 444 511 34,900 -1,080 Descending Jacksonville Center
09:16AM 31.5131 -80.9600 183° South 443 510 33,800 -1,260 Descending Jacksonville Center
09:17AM 31.3775 -80.9703 184° South 461 531 32,400 -900 Descending Jacksonville Center
09:18AM 31.2439 -80.9803 184° South 466 536 32,000 -240 Descending Jacksonville Center
09:19AM 31.1167 -80.9900 184° South 466 536 32,000  Level Jacksonville Center
09:20AM 30.9872 -80.9975 183° South 467 537 32,000  Level Jacksonville Center
09:21AM 30.8558 -81.0025 182° South 467 537 32,000  Level Jacksonville Center
09:22AM 30.7308 -81.0122 184° South 467 537 32,000  Level Jacksonville Center
09:23AM 30.6056 -81.0219 184° South 462 532 32,000  Level Jacksonville Center
09:24AM 30.4783 -81.0294 183° South 457 526 32,000  Level Jacksonville Center
09:25AM 30.3492 -81.0414 185° South 459 528 32,000  Level Jacksonville Center
09:26AM 30.2261 -81.0511 184° South 459 528 32,000  Level Jacksonville Center
09:27AM 30.1008 -81.0583 183° South 459 528 32,000 -780 Level Jacksonville Center
09:28AM 29.9758 -81.0656 183° South 459 528 30,500 -1,920 Descending Jacksonville Center
09:29AM 29.8547 -81.0750 184° South 454 522 28,200 -2,100 Descending Jacksonville Center
09:30AM 29.7547 -81.0817 183° South 454 522 26,300 -2,220 Descending Jacksonville Center
09:31AM 29.6275 -81.0936 185° South 439 505 23,800 -2,340 Descending Jacksonville Center
09:32AM 29.5169 -81.1003 183° South 420 483 21,700 -2,100 Descending Jacksonville Center
09:33AM 29.4128 -81.1094 184° South 397 457 19,700 -1,980 Descending Jacksonville Center
09:34AM 29.3064 -81.1136 182° South 384 442 17,800 -2,100 Descending Jacksonville Center
09:35AM 29.1956 -81.1108 179° South 390 449 15,500 -2,160 Descending Jacksonville Center
09:36AM 29.0911 -81.0986 174° South 390 449 13,500 -1,800 Descending Jacksonville Center
09:37AM 28.9950 -81.0883 175° South 368 423 12,000 -780 Descending Jacksonville Center
09:38AM 28.9133 -81.0803 175° South 329 379 12,000 -480 Level Jacksonville Center
09:39AM 28.8400 -81.0439 157° South 301 346 11,100 -1,500 Descending Jacksonville Center
09:40AM 28.7606 -81.0336 174° South 289 333 9,100 -1,980 Descending Jacksonville Center
09:41AM 28.7261 -81.1169 245° Southwest 240 276 7,200 -1,980 Descending Jacksonville Center
09:42AM 28.7167 -81.1667 258° West 292 336 6,100 -1,860 Descending Orlando TRACON
09:42AM 28.6833 -81.2333 240° Southwest 285 328 4,700 -1,320 Descending Orlando TRACON
09:43AM 28.6167 -81.2833 213° Southwest 254 292 3,800 -900 Descending Orlando TRACON